Weather at Theux (Verviers) Airfield

Public forecast

Using degrees Celsius for public forecast. Weather courtesy of forecast.io.

Closest aviation weather report (METAR) to Theux (Verviers) Airfield

Closest report is Elsenborn Air Base, 13.2 nm (24.4 km) ESE.

(retrieved 0 seconds ago)

Closest aviation forecast (TAF) to Theux (Verviers) Airfield

Closest forecast is Liège Airport, 16.5 nm (30.5 km) WNW.

2024/05/25 12:27 (retrieved 5 hours ago)

TAF EBLG 251120Z 2512/2618 25005KT 9999 SCT030 PROB30 TEMPO 2512/2513 BKN012 TEMPO 2612/2618 4000 SHRA BKN030CB PROB30 TEMPO 2612/2618 20015G25KT 2500 TSRA SCT015 BKN030CB